Flugplatz Kehl-Sundheim (EDSK)

Hier findest Du alle Informationen zum Flugplatz Kehl-Sundheim (EDSK).

Informationen für Piloten zum Flugplatz Kehl-Sundheim

Hier findest Du alle relevanten Informationen, die Du als Pilot benötigst, um Kehl-Sundheim anzufliegen.

Flugplatz: Kehl-Sundheim ICAO-Code: EDSK
Frequenz Turm: 122,750 Mhz GAFOR Gebiet: 51
Frequenz Ground: 122,750 Mhz Mogas: ja
Platzrunde: SE 1300 ft Landegebühr: -
Platzhöhe: - Sunrise: 03:28 Uhr UTC
Pisten: 03/21 - 475 m x 30 m, GRAS Sunset: 19:36 Uhr UTC

Flugwetter am Flugplatz Kehl-Sundheim

Die METAR Information stammen aus EDTL (21.12 km entfernt).

METAR Code:
2022/06/21 18:50
EDTL 211850Z 35003KT 310V020 CAVOK 26/16 Q1010

Temperatur: 17,3 °C Niederschlag: - Wind: 2,0 kt
Temperatur (min.): 15,8 °C Luftdruck: 1022 hPa Windrichtung: 160 °
Temperatur (max.): 18,9 °C Luftfeuchtigkeit: 71 % Bewölkung: -

Flugschulen am Flugplatz Kehl-Sundheim

Am Flugplatz Kehl-Sundheim gibt es 2 Flugschulen.

Benachbarte Flugplätze und Flugschulen

Es gibt 6 weitere Flugplätze in einem Umkreis von 50 km um den Flugplatz Kehl-Sundheim.

Jetzt anmelden

Passwort vergessen

Umfrage Archiv

Sendet Ihr ADS-B und/oder FLARM?

Ja
83.1 %
Nein
16.9 %
Stimmen: 177 | Diskussion
Anzeige: Roland Aircraft
Statistik Alle Mitglieder

Aktuell sind 45 Besucher online, davon 3 Mitglieder und 42 Gäste.


Mitglieder online:
Maraio  Maik  aviatrix 

Anzeige: ULPower Aero Engines Anzeige: Pocket FMS